sensor_id;sensor_type;location;lat;lon;timestamp;P1;durP1;ratioP1;P2;durP2;ratioP2
10335;SDS011;5213;53.548;9.930;2023-01-24T00:00:37;21.98;;;13.23;;
10335;SDS011;5213;53.548;9.930;2023-01-24T00:03:03;19.02;;;13.13;;
10335;SDS011;5213;53.548;9.930;2023-01-24T00:05:29;22.48;;;13.63;;
10335;SDS011;5213;53.548;9.930;2023-01-24T00:07:58;19.70;;;12.88;;
10335;SDS011;5213;53.548;9.930;2023-01-24T00:10:24;20.52;;;13.57;;
10335;SDS011;5213;53.548;9.930;2023-01-24T00:12:50;20.45;;;12.70;;
10335;SDS011;5213;53.548;9.930;2023-01-24T00:15:16;22.17;;;12.70;;
10335;SDS011;5213;53.548;9.930;2023-01-24T00:17:42;19.15;;;12.40;;
10335;SDS011;5213;53.548;9.930;2023-01-24T00:20:09;23.90;;;14.07;;
10335;SDS011;5213;53.548;9.930;2023-01-24T00:22:35;18.17;;;12.25;;
10335;SDS011;5213;53.548;9.930;2023-01-24T00:25:01;20.58;;;12.70;;
10335;SDS011;5213;53.548;9.930;2023-01-24T00:27:27;19.95;;;13.38;;
10335;SDS011;5213;53.548;9.930;2023-01-24T00:29:56;20.20;;;13.02;;
10335;SDS011;5213;53.548;9.930;2023-01-24T00:32:22;20.27;;;13.10;;
10335;SDS011;5213;53.548;9.930;2023-01-24T00:34:48;20.20;;;13.57;;
10335;SDS011;5213;53.548;9.930;2023-01-24T00:37:14;20.30;;;13.10;;
10335;SDS011;5213;53.548;9.930;2023-01-24T00:39:40;20.50;;;13.15;;
10335;SDS011;5213;53.548;9.930;2023-01-24T00:42:06;21.35;;;12.55;;
10335;SDS011;5213;53.548;9.930;2023-01-24T00:44:32;22.58;;;12.35;;
10335;SDS011;5213;53.548;9.930;2023-01-24T00:46:58;21.13;;;13.75;;
10335;SDS011;5213;53.548;9.930;2023-01-24T00:49:24;20.05;;;12.98;;
10335;SDS011;5213;53.548;9.930;2023-01-24T00:51:50;21.13;;;13.30;;
10335;SDS011;5213;53.548;9.930;2023-01-24T00:54:16;20.08;;;13.38;;
10335;SDS011;5213;53.548;9.930;2023-01-24T00:56:42;18.85;;;12.57;;
10335;SDS011;5213;53.548;9.930;2023-01-24T00:59:09;21.35;;;13.38;;
10335;SDS011;5213;53.548;9.930;2023-01-24T01:01:35;19.15;;;13.55;;
10335;SDS011;5213;53.548;9.930;2023-01-24T01:04:01;24.27;;;13.23;;
10335;SDS011;5213;53.548;9.930;2023-01-24T01:06:27;19.70;;;12.63;;
10335;SDS011;5213;53.548;9.930;2023-01-24T01:08:53;20.25;;;13.38;;
10335;SDS011;5213;53.548;9.930;2023-01-24T01:11:19;23.02;;;12.98;;
10335;SDS011;5213;53.548;9.930;2023-01-24T01:13:45;21.88;;;13.38;;
10335;SDS011;5213;53.548;9.930;2023-01-24T01:16:14;22.67;;;13.20;;
10335;SDS011;5213;53.548;9.930;2023-01-24T01:18:41;20.33;;;12.45;;
10335;SDS011;5213;53.548;9.930;2023-01-24T01:21:07;22.88;;;13.43;;
10335;SDS011;5213;53.548;9.930;2023-01-24T01:23:33;23.40;;;13.65;;
10335;SDS011;5213;53.548;9.930;2023-01-24T01:26:04;20.45;;;12.93;;
10335;SDS011;5213;53.548;9.930;2023-01-24T01:28:30;21.08;;;12.75;;
10335;SDS011;5213;53.548;9.930;2023-01-24T01:30:56;20.63;;;13.30;;
10335;SDS011;5213;53.548;9.930;2023-01-24T01:33:22;22.52;;;13.70;;
10335;SDS011;5213;53.548;9.930;2023-01-24T01:35:49;21.40;;;13.27;;
10335;SDS011;5213;53.548;9.930;2023-01-24T01:38:16;21.15;;;12.70;;
10335;SDS011;5213;53.548;9.930;2023-01-24T01:40:42;22.70;;;13.32;;
10335;SDS011;5213;53.548;9.930;2023-01-24T01:43:10;19.30;;;12.50;;
10335;SDS011;5213;53.548;9.930;2023-01-24T01:45:39;19.90;;;13.38;;
10335;SDS011;5213;53.548;9.930;2023-01-24T01:48:19;20.38;;;13.07;;
10335;SDS011;5213;53.548;9.930;2023-01-24T01:50:48;19.98;;;12.15;;
10335;SDS011;5213;53.548;9.930;2023-01-24T01:53:16;21.92;;;12.85;;
10335;SDS011;5213;53.548;9.930;2023-01-24T01:55:43;19.85;;;12.77;;
10335;SDS011;5213;53.548;9.930;2023-01-24T01:58:12;21.55;;;12.98;;
10335;SDS011;5213;53.548;9.930;2023-01-24T02:00:38;18.05;;;12.05;;
10335;SDS011;5213;53.548;9.930;2023-01-24T02:03:11;20.30;;;13.50;;
10335;SDS011;5213;53.548;9.930;2023-01-24T02:05:59;20.52;;;12.15;;
10335;SDS011;5213;53.548;9.930;2023-01-24T02:08:25;20.55;;;13.10;;
10335;SDS011;5213;53.548;9.930;2023-01-24T02:10:52;19.75;;;12.43;;
10335;SDS011;5213;53.548;9.930;2023-01-24T02:13:38;19.35;;;13.38;;
10335;SDS011;5213;53.548;9.930;2023-01-24T02:16:08;19.88;;;13.20;;
10335;SDS011;5213;53.548;9.930;2023-01-24T02:18:35;18.75;;;12.15;;
10335;SDS011;5213;53.548;9.930;2023-01-24T02:21:01;22.98;;;12.57;;
10335;SDS011;5213;53.548;9.930;2023-01-24T02:26:16;18.35;;;12.73;;
10335;SDS011;5213;53.548;9.930;2023-01-24T02:28:51;17.38;;;12.38;;
10335;SDS011;5213;53.548;9.930;2023-01-24T02:31:18;18.65;;;12.80;;
10335;SDS011;5213;53.548;9.930;2023-01-24T02:33:44;17.35;;;11.85;;
10335;SDS011;5213;53.548;9.930;2023-01-24T02:38:36;22.33;;;12.57;;
10335;SDS011;5213;53.548;9.930;2023-01-24T02:41:02;21.05;;;12.73;;
10335;SDS011;5213;53.548;9.930;2023-01-24T02:43:33;20.55;;;13.40;;
10335;SDS011;5213;53.548;9.930;2023-01-24T02:46:00;19.45;;;12.73;;
10335;SDS011;5213;53.548;9.930;2023-01-24T02:48:26;13.38;;;10.75;;
10335;SDS011;5213;53.548;9.930;2023-01-24T02:50:52;19.75;;;12.00;;
10335;SDS011;5213;53.548;9.930;2023-01-24T02:53:37;18.58;;;11.88;;
10335;SDS011;5213;53.548;9.930;2023-01-24T02:56:05;18.88;;;12.75;;
10335;SDS011;5213;53.548;9.930;2023-01-24T02:58:50;19.73;;;12.52;;
10335;SDS011;5213;53.548;9.930;2023-01-24T03:01:17;21.55;;;12.95;;
10335;SDS011;5213;53.548;9.930;2023-01-24T03:03:44;18.50;;;12.05;;
10335;SDS011;5213;53.548;9.930;2023-01-24T03:06:10;21.60;;;13.52;;
10335;SDS011;5213;53.548;9.930;2023-01-24T03:08:37;20.88;;;12.45;;
10335;SDS011;5213;53.548;9.930;2023-01-24T03:11:03;21.08;;;12.48;;
10335;SDS011;5213;53.548;9.930;2023-01-24T03:13:30;18.17;;;12.73;;
10335;SDS011;5213;53.548;9.930;2023-01-24T03:16:15;18.33;;;11.38;;
10335;SDS011;5213;53.548;9.930;2023-01-24T03:19:00;18.83;;;12.15;;
10335;SDS011;5213;53.548;9.930;2023-01-24T03:21:45;19.92;;;12.70;;
10335;SDS011;5213;53.548;9.930;2023-01-24T03:24:30;19.50;;;12.23;;
10335;SDS011;5213;53.548;9.930;2023-01-24T03:27:15;18.10;;;12.02;;
10335;SDS011;5213;53.548;9.930;2023-01-24T03:30:00;18.38;;;12.38;;
10335;SDS011;5213;53.548;9.930;2023-01-24T03:32:45;21.65;;;12.48;;
10335;SDS011;5213;53.548;9.930;2023-01-24T03:35:29;21.38;;;12.25;;
10335;SDS011;5213;53.548;9.930;2023-01-24T03:37:56;17.25;;;12.07;;
10335;SDS011;5213;53.548;9.930;2023-01-24T03:40:40;18.30;;;12.57;;
10335;SDS011;5213;53.548;9.930;2023-01-24T03:43:06;18.77;;;12.10;;
10335;SDS011;5213;53.548;9.930;2023-01-24T03:45:33;19.67;;;12.45;;
10335;SDS011;5213;53.548;9.930;2023-01-24T03:48:16;17.73;;;12.38;;
10335;SDS011;5213;53.548;9.930;2023-01-24T03:50:52;17.40;;;11.82;;
10335;SDS011;5213;53.548;9.930;2023-01-24T03:53:37;17.02;;;12.55;;
10335;SDS011;5213;53.548;9.930;2023-01-24T03:56:03;20.27;;;12.82;;
10335;SDS011;5213;53.548;9.930;2023-01-24T03:58:30;20.90;;;12.63;;
10335;SDS011;5213;53.548;9.930;2023-01-24T04:00:56;17.90;;;12.07;;
10335;SDS011;5213;53.548;9.930;2023-01-24T04:03:23;20.23;;;12.30;;
10335;SDS011;5213;53.548;9.930;2023-01-24T04:05:49;18.88;;;12.18;;
10335;SDS011;5213;53.548;9.930;2023-01-24T04:08:16;18.40;;;12.15;;
10335;SDS011;5213;53.548;9.930;2023-01-24T04:10:42;18.45;;;11.77;;
10335;SDS011;5213;53.548;9.930;2023-01-24T04:13:11;16.50;;;11.18;;
10335;SDS011;5213;53.548;9.930;2023-01-24T04:15:38;18.05;;;11.98;;
10335;SDS011;5213;53.548;9.930;2023-01-24T04:18:05;19.25;;;12.18;;
10335;SDS011;5213;53.548;9.930;2023-01-24T04:20:32;17.48;;;11.70;;
10335;SDS011;5213;53.548;9.930;2023-01-24T04:23:00;16.70;;;11.57;;
10335;SDS011;5213;53.548;9.930;2023-01-24T04:25:26;19.10;;;12.10;;
10335;SDS011;5213;53.548;9.930;2023-01-24T04:27:52;15.50;;;11.18;;
10335;SDS011;5213;53.548;9.930;2023-01-24T04:30:18;18.27;;;11.77;;
10335;SDS011;5213;53.548;9.930;2023-01-24T04:32:44;19.00;;;11.65;;
10335;SDS011;5213;53.548;9.930;2023-01-24T04:35:27;16.42;;;10.88;;
10335;SDS011;5213;53.548;9.930;2023-01-24T04:37:56;17.10;;;11.50;;
10335;SDS011;5213;53.548;9.930;2023-01-24T04:40:23;15.85;;;10.35;;
10335;SDS011;5213;53.548;9.930;2023-01-24T04:42:49;15.02;;;10.55;;
10335;SDS011;5213;53.548;9.930;2023-01-24T04:45:15;15.13;;;11.25;;
10335;SDS011;5213;53.548;9.930;2023-01-24T04:47:41;15.23;;;10.60;;
10335;SDS011;5213;53.548;9.930;2023-01-24T04:50:07;15.38;;;11.43;;
10335;SDS011;5213;53.548;9.930;2023-01-24T04:52:33;15.55;;;10.77;;
10335;SDS011;5213;53.548;9.930;2023-01-24T04:54:59;15.07;;;10.73;;
10335;SDS011;5213;53.548;9.930;2023-01-24T04:57:25;14.95;;;9.40;;
10335;SDS011;5213;53.548;9.930;2023-01-24T04:59:51;14.20;;;10.45;;
10335;SDS011;5213;53.548;9.930;2023-01-24T05:02:17;15.65;;;9.88;;
10335;SDS011;5213;53.548;9.930;2023-01-24T05:04:43;13.65;;;9.82;;
10335;SDS011;5213;53.548;9.930;2023-01-24T05:07:10;14.25;;;9.82;;
10335;SDS011;5213;53.548;9.930;2023-01-24T05:09:36;16.08;;;9.77;;
10335;SDS011;5213;53.548;9.930;2023-01-24T05:12:02;14.13;;;9.32;;
10335;SDS011;5213;53.548;9.930;2023-01-24T05:14:28;13.52;;;9.85;;
10335;SDS011;5213;53.548;9.930;2023-01-24T05:16:54;14.85;;;10.10;;
10335;SDS011;5213;53.548;9.930;2023-01-24T05:19:20;13.30;;;9.13;;
10335;SDS011;5213;53.548;9.930;2023-01-24T05:21:46;11.60;;;8.35;;
10335;SDS011;5213;53.548;9.930;2023-01-24T05:24:12;10.88;;;8.15;;
10335;SDS011;5213;53.548;9.930;2023-01-24T05:26:38;10.75;;;8.48;;
10335;SDS011;5213;53.548;9.930;2023-01-24T05:29:05;12.25;;;8.35;;
10335;SDS011;5213;53.548;9.930;2023-01-24T05:31:31;11.23;;;8.88;;
10335;SDS011;5213;53.548;9.930;2023-01-24T05:33:57;10.57;;;8.45;;
10335;SDS011;5213;53.548;9.930;2023-01-24T05:36:23;14.07;;;9.77;;
10335;SDS011;5213;53.548;9.930;2023-01-24T05:38:50;12.02;;;9.30;;
10335;SDS011;5213;53.548;9.930;2023-01-24T05:41:16;12.13;;;8.82;;
10335;SDS011;5213;53.548;9.930;2023-01-24T05:43:43;14.90;;;9.15;;
10335;SDS011;5213;53.548;9.930;2023-01-24T05:46:11;14.05;;;10.35;;
10335;SDS011;5213;53.548;9.930;2023-01-24T05:48:37;11.93;;;9.38;;
10335;SDS011;5213;53.548;9.930;2023-01-24T05:51:07;12.48;;;8.75;;
10335;SDS011;5213;53.548;9.930;2023-01-24T05:53:35;10.55;;;8.45;;
10335;SDS011;5213;53.548;9.930;2023-01-24T05:56:02;9.82;;;7.63;;
10335;SDS011;5213;53.548;9.930;2023-01-24T05:58:29;8.48;;;7.55;;
10335;SDS011;5213;53.548;9.930;2023-01-24T06:00:55;9.15;;;7.70;;
10335;SDS011;5213;53.548;9.930;2023-01-24T06:03:22;9.93;;;7.60;;
10335;SDS011;5213;53.548;9.930;2023-01-24T06:05:49;7.90;;;7.10;;
10335;SDS011;5213;53.548;9.930;2023-01-24T06:08:15;8.57;;;7.45;;
10335;SDS011;5213;53.548;9.930;2023-01-24T06:10:41;10.27;;;7.80;;
10335;SDS011;5213;53.548;9.930;2023-01-24T06:13:08;9.38;;;7.22;;
10335;SDS011;5213;53.548;9.930;2023-01-24T06:15:35;9.38;;;6.68;;
10335;SDS011;5213;53.548;9.930;2023-01-24T06:18:01;8.80;;;7.20;;
10335;SDS011;5213;53.548;9.930;2023-01-24T06:20:28;7.97;;;6.75;;
10335;SDS011;5213;53.548;9.930;2023-01-24T06:22:56;10.40;;;7.60;;
10335;SDS011;5213;53.548;9.930;2023-01-24T06:25:25;8.90;;;6.90;;
10335;SDS011;5213;53.548;9.930;2023-01-24T06:27:51;8.70;;;7.07;;
10335;SDS011;5213;53.548;9.930;2023-01-24T06:30:18;10.90;;;7.00;;
10335;SDS011;5213;53.548;9.930;2023-01-24T06:33:01;9.15;;;7.10;;
10335;SDS011;5213;53.548;9.930;2023-01-24T06:35:48;7.80;;;6.88;;
10335;SDS011;5213;53.548;9.930;2023-01-24T06:38:21;8.32;;;6.82;;
10335;SDS011;5213;53.548;9.930;2023-01-24T06:40:48;9.63;;;7.47;;
10335;SDS011;5213;53.548;9.930;2023-01-24T06:43:17;9.05;;;7.00;;
10335;SDS011;5213;53.548;9.930;2023-01-24T06:45:43;8.35;;;6.82;;
10335;SDS011;5213;53.548;9.930;2023-01-24T06:48:09;8.75;;;6.65;;
10335;SDS011;5213;53.548;9.930;2023-01-24T06:50:35;9.18;;;7.57;;
10335;SDS011;5213;53.548;9.930;2023-01-24T06:53:01;7.57;;;6.63;;
10335;SDS011;5213;53.548;9.930;2023-01-24T06:55:27;9.23;;;7.18;;
10335;SDS011;5213;53.548;9.930;2023-01-24T06:57:54;9.93;;;7.03;;
10335;SDS011;5213;53.548;9.930;2023-01-24T07:00:20;9.00;;;7.47;;
10335;SDS011;5213;53.548;9.930;2023-01-24T07:02:46;7.03;;;6.32;;
10335;SDS011;5213;53.548;9.930;2023-01-24T07:05:12;8.45;;;7.03;;
10335;SDS011;5213;53.548;9.930;2023-01-24T07:07:38;7.63;;;6.70;;
10335;SDS011;5213;53.548;9.930;2023-01-24T07:10:05;7.22;;;6.43;;
10335;SDS011;5213;53.548;9.930;2023-01-24T07:12:31;8.35;;;6.88;;
10335;SDS011;5213;53.548;9.930;2023-01-24T07:14:57;7.85;;;7.05;;
10335;SDS011;5213;53.548;9.930;2023-01-24T07:17:23;8.60;;;7.70;;
10335;SDS011;5213;53.548;9.930;2023-01-24T07:19:49;8.50;;;7.30;;
10335;SDS011;5213;53.548;9.930;2023-01-24T07:22:15;7.60;;;6.75;;
10335;SDS011;5213;53.548;9.930;2023-01-24T07:24:42;10.18;;;7.10;;
10335;SDS011;5213;53.548;9.930;2023-01-24T07:27:09;10.75;;;8.43;;
10335;SDS011;5213;53.548;9.930;2023-01-24T07:29:35;8.65;;;7.15;;
10335;SDS011;5213;53.548;9.930;2023-01-24T07:32:01;10.23;;;7.90;;
10335;SDS011;5213;53.548;9.930;2023-01-24T07:34:28;9.05;;;8.10;;
10335;SDS011;5213;53.548;9.930;2023-01-24T07:36:54;8.52;;;7.32;;
10335;SDS011;5213;53.548;9.930;2023-01-24T07:39:20;10.07;;;7.78;;
10335;SDS011;5213;53.548;9.930;2023-01-24T07:41:46;9.65;;;7.93;;
10335;SDS011;5213;53.548;9.930;2023-01-24T07:44:12;8.15;;;6.90;;
10335;SDS011;5213;53.548;9.930;2023-01-24T07:46:38;10.27;;;7.50;;
10335;SDS011;5213;53.548;9.930;2023-01-24T07:49:04;8.85;;;7.40;;
10335;SDS011;5213;53.548;9.930;2023-01-24T07:51:30;8.85;;;7.15;;
10335;SDS011;5213;53.548;9.930;2023-01-24T07:53:56;8.65;;;7.22;;
10335;SDS011;5213;53.548;9.930;2023-01-24T07:56:22;10.15;;;7.60;;
10335;SDS011;5213;53.548;9.930;2023-01-24T07:58:49;9.85;;;7.72;;
10335;SDS011;5213;53.548;9.930;2023-01-24T08:01:15;11.38;;;8.65;;
10335;SDS011;5213;53.548;9.930;2023-01-24T08:03:42;9.63;;;7.70;;
10335;SDS011;5213;53.548;9.930;2023-01-24T08:06:08;8.60;;;7.68;;
10335;SDS011;5213;53.548;9.930;2023-01-24T08:08:34;9.20;;;8.05;;
10335;SDS011;5213;53.548;9.930;2023-01-24T08:11:00;9.73;;;7.45;;
10335;SDS011;5213;53.548;9.930;2023-01-24T08:13:26;8.95;;;7.22;;
10335;SDS011;5213;53.548;9.930;2023-01-24T08:15:52;13.35;;;7.53;;
10335;SDS011;5213;53.548;9.930;2023-01-24T08:18:18;8.80;;;7.03;;
10335;SDS011;5213;53.548;9.930;2023-01-24T08:20:44;9.73;;;7.22;;
10335;SDS011;5213;53.548;9.930;2023-01-24T08:23:10;10.63;;;7.75;;
10335;SDS011;5213;53.548;9.930;2023-01-24T08:25:36;9.30;;;7.72;;
10335;SDS011;5213;53.548;9.930;2023-01-24T08:28:02;10.88;;;8.10;;
10335;SDS011;5213;53.548;9.930;2023-01-24T08:30:28;11.15;;;8.70;;
10335;SDS011;5213;53.548;9.930;2023-01-24T08:32:58;10.30;;;7.80;;
10335;SDS011;5213;53.548;9.930;2023-01-24T08:35:24;9.35;;;7.70;;
10335;SDS011;5213;53.548;9.930;2023-01-24T08:37:50;10.40;;;8.05;;
10335;SDS011;5213;53.548;9.930;2023-01-24T08:40:16;9.75;;;7.65;;
10335;SDS011;5213;53.548;9.930;2023-01-24T08:42:44;8.82;;;7.70;;
10335;SDS011;5213;53.548;9.930;2023-01-24T08:45:10;9.13;;;7.72;;
10335;SDS011;5213;53.548;9.930;2023-01-24T08:47:36;9.55;;;8.05;;
10335;SDS011;5213;53.548;9.930;2023-01-24T08:50:02;9.75;;;8.10;;
10335;SDS011;5213;53.548;9.930;2023-01-24T08:52:28;9.27;;;7.63;;
10335;SDS011;5213;53.548;9.930;2023-01-24T08:54:54;9.52;;;7.18;;
10335;SDS011;5213;53.548;9.930;2023-01-24T08:57:20;10.60;;;8.07;;
10335;SDS011;5213;53.548;9.930;2023-01-24T08:59:46;10.18;;;8.00;;
10335;SDS011;5213;53.548;9.930;2023-01-24T09:02:13;11.00;;;7.95;;
10335;SDS011;5213;53.548;9.930;2023-01-24T09:04:39;9.88;;;6.95;;
10335;SDS011;5213;53.548;9.930;2023-01-24T09:07:07;11.25;;;8.40;;
10335;SDS011;5213;53.548;9.930;2023-01-24T09:09:33;8.70;;;7.40;;
10335;SDS011;5213;53.548;9.930;2023-01-24T09:11:59;8.02;;;7.07;;
10335;SDS011;5213;53.548;9.930;2023-01-24T09:14:25;11.48;;;8.63;;
10335;SDS011;5213;53.548;9.930;2023-01-24T09:16:51;14.95;;;8.65;;
10335;SDS011;5213;53.548;9.930;2023-01-24T09:19:17;11.43;;;7.85;;
10335;SDS011;5213;53.548;9.930;2023-01-24T09:21:43;8.82;;;7.70;;
10335;SDS011;5213;53.548;9.930;2023-01-24T09:24:10;10.90;;;7.13;;
10335;SDS011;5213;53.548;9.930;2023-01-24T09:26:36;8.45;;;7.55;;
10335;SDS011;5213;53.548;9.930;2023-01-24T09:29:02;7.80;;;6.78;;
10335;SDS011;5213;53.548;9.930;2023-01-24T09:31:28;9.52;;;7.47;;
10335;SDS011;5213;53.548;9.930;2023-01-24T09:33:54;9.55;;;7.72;;
10335;SDS011;5213;53.548;9.930;2023-01-24T09:36:20;9.50;;;7.50;;
10335;SDS011;5213;53.548;9.930;2023-01-24T09:38:46;9.57;;;7.57;;
10335;SDS011;5213;53.548;9.930;2023-01-24T09:43:51;10.05;;;7.57;;
10335;SDS011;5213;53.548;9.930;2023-01-24T09:48:44;10.23;;;7.25;;
10335;SDS011;5213;53.548;9.930;2023-01-24T09:51:30;8.32;;;6.72;;
10335;SDS011;5213;53.548;9.930;2023-01-24T09:53:58;9.45;;;7.40;;
10335;SDS011;5213;53.548;9.930;2023-01-24T09:56:26;10.18;;;7.47;;
10335;SDS011;5213;53.548;9.930;2023-01-24T09:58:58;7.88;;;7.07;;
10335;SDS011;5213;53.548;9.930;2023-01-24T10:01:39;9.43;;;7.68;;
10335;SDS011;5213;53.548;9.930;2023-01-24T10:04:21;12.00;;;8.43;;
10335;SDS011;5213;53.548;9.930;2023-01-24T10:12:17;9.35;;;7.93;;
10335;SDS011;5213;53.548;9.930;2023-01-24T10:17:44;9.43;;;7.63;;
10335;SDS011;5213;53.548;9.930;2023-01-24T10:20:11;15.88;;;8.15;;
10335;SDS011;5213;53.548;9.930;2023-01-24T10:27:38;9.20;;;7.82;;
10335;SDS011;5213;53.548;9.930;2023-01-24T10:30:16;11.75;;;8.25;;
10335;SDS011;5213;53.548;9.930;2023-01-24T10:32:44;10.15;;;7.82;;
10335;SDS011;5213;53.548;9.930;2023-01-24T10:35:32;13.20;;;8.27;;
10335;SDS011;5213;53.548;9.930;2023-01-24T10:38:01;11.13;;;8.10;;
10335;SDS011;5213;53.548;9.930;2023-01-24T10:40:28;9.20;;;7.22;;
10335;SDS011;5213;53.548;9.930;2023-01-24T10:42:54;10.70;;;7.65;;
10335;SDS011;5213;53.548;9.930;2023-01-24T10:51:09;9.18;;;7.38;;
10335;SDS011;5213;53.548;9.930;2023-01-24T10:53:35;12.40;;;7.82;;
10335;SDS011;5213;53.548;9.930;2023-01-24T10:56:03;9.70;;;7.68;;
10335;SDS011;5213;53.548;9.930;2023-01-24T10:58:33;9.18;;;7.72;;
10335;SDS011;5213;53.548;9.930;2023-01-24T11:01:05;20.23;;;8.45;;
10335;SDS011;5213;53.548;9.930;2023-01-24T11:03:31;12.48;;;8.05;;
10335;SDS011;5213;53.548;9.930;2023-01-24T11:06:00;12.25;;;7.78;;
10335;SDS011;5213;53.548;9.930;2023-01-24T11:08:32;12.45;;;7.63;;
10335;SDS011;5213;53.548;9.930;2023-01-24T11:10:58;11.55;;;7.75;;
10335;SDS011;5213;53.548;9.930;2023-01-24T11:13:26;9.77;;;7.65;;
10335;SDS011;5213;53.548;9.930;2023-01-24T11:15:53;11.30;;;8.18;;
10335;SDS011;5213;53.548;9.930;2023-01-24T11:18:21;11.60;;;7.35;;
10335;SDS011;5213;53.548;9.930;2023-01-24T11:20:50;9.23;;;7.25;;
10335;SDS011;5213;53.548;9.930;2023-01-24T11:23:29;12.00;;;7.85;;
10335;SDS011;5213;53.548;9.930;2023-01-24T11:25:56;10.82;;;8.07;;
10335;SDS011;5213;53.548;9.930;2023-01-24T11:28:26;10.45;;;7.57;;
10335;SDS011;5213;53.548;9.930;2023-01-24T11:30:54;12.73;;;7.43;;
10335;SDS011;5213;53.548;9.930;2023-01-24T11:36:29;13.70;;;7.80;;
10335;SDS011;5213;53.548;9.930;2023-01-24T11:38:51;10.32;;;7.38;;
10335;SDS011;5213;53.548;9.930;2023-01-24T11:41:19;9.30;;;7.85;;
10335;SDS011;5213;53.548;9.930;2023-01-24T11:46:48;13.85;;;8.25;;
10335;SDS011;5213;53.548;9.930;2023-01-24T12:09:58;12.18;;;8.80;;
10335;SDS011;5213;53.548;9.930;2023-01-24T12:12:41;10.05;;;7.93;;
10335;SDS011;5213;53.548;9.930;2023-01-24T12:20:29;9.13;;;8.20;;
10335;SDS011;5213;53.548;9.930;2023-01-24T12:22:57;12.98;;;8.63;;
10335;SDS011;5213;53.548;9.930;2023-01-24T12:25:26;12.05;;;8.77;;
10335;SDS011;5213;53.548;9.930;2023-01-24T12:27:56;9.32;;;8.40;;
10335;SDS011;5213;53.548;9.930;2023-01-24T12:30:27;11.35;;;9.00;;
10335;SDS011;5213;53.548;9.930;2023-01-24T12:35:40;12.02;;;10.20;;
10335;SDS011;5213;53.548;9.930;2023-01-24T12:40:55;12.00;;;8.55;;
10335;SDS011;5213;53.548;9.930;2023-01-24T12:43:24;10.23;;;8.77;;
10335;SDS011;5213;53.548;9.930;2023-01-24T12:54:00;10.68;;;8.68;;
10335;SDS011;5213;53.548;9.930;2023-01-24T12:59:03;11.75;;;9.52;;
10335;SDS011;5213;53.548;9.930;2023-01-24T13:01:33;10.80;;;9.40;;
10335;SDS011;5213;53.548;9.930;2023-01-24T13:06:28;11.32;;;9.02;;
10335;SDS011;5213;53.548;9.930;2023-01-24T13:11:59;14.27;;;9.23;;
10335;SDS011;5213;53.548;9.930;2023-01-24T13:22:36;14.05;;;8.98;;
10335;SDS011;5213;53.548;9.930;2023-01-24T13:27:26;11.40;;;8.52;;
10335;SDS011;5213;53.548;9.930;2023-01-24T13:30:12;11.57;;;9.02;;
10335;SDS011;5213;53.548;9.930;2023-01-24T13:32:40;11.65;;;7.90;;
10335;SDS011;5213;53.548;9.930;2023-01-24T13:35:15;10.50;;;8.55;;
10335;SDS011;5213;53.548;9.930;2023-01-24T13:37:47;11.50;;;8.85;;
10335;SDS011;5213;53.548;9.930;2023-01-24T13:42:41;12.52;;;9.35;;
10335;SDS011;5213;53.548;9.930;2023-01-24T13:48:00;11.73;;;9.43;;
10335;SDS011;5213;53.548;9.930;2023-01-24T13:50:28;12.50;;;8.70;;
10335;SDS011;5213;53.548;9.930;2023-01-24T13:52:58;11.23;;;9.15;;
10335;SDS011;5213;53.548;9.930;2023-01-24T14:00:33;14.93;;;10.45;;
10335;SDS011;5213;53.548;9.930;2023-01-24T14:08:02;13.40;;;10.55;;
10335;SDS011;5213;53.548;9.930;2023-01-24T14:10:32;15.73;;;10.48;;
10335;SDS011;5213;53.548;9.930;2023-01-24T14:12:59;13.07;;;8.70;;
10335;SDS011;5213;53.548;9.930;2023-01-24T14:15:27;17.10;;;10.43;;
10335;SDS011;5213;53.548;9.930;2023-01-24T14:17:57;15.48;;;10.93;;
10335;SDS011;5213;53.548;9.930;2023-01-24T14:20:56;11.18;;;8.82;;
10335;SDS011;5213;53.548;9.930;2023-01-24T14:23:18;11.07;;;9.07;;
10335;SDS011;5213;53.548;9.930;2023-01-24T14:28:30;12.88;;;9.35;;
10335;SDS011;5213;53.548;9.930;2023-01-24T14:30:59;15.77;;;9.52;;
10335;SDS011;5213;53.548;9.930;2023-01-24T14:35:58;12.57;;;8.95;;
10335;SDS011;5213;53.548;9.930;2023-01-24T14:38:25;12.52;;;9.25;;
10335;SDS011;5213;53.548;9.930;2023-01-24T14:40:52;14.13;;;9.40;;
10335;SDS011;5213;53.548;9.930;2023-01-24T14:43:19;11.32;;;9.68;;
10335;SDS011;5213;53.548;9.930;2023-01-24T14:45:46;11.68;;;8.73;;
10335;SDS011;5213;53.548;9.930;2023-01-24T14:48:14;9.60;;;8.52;;
10335;SDS011;5213;53.548;9.930;2023-01-24T14:50:42;11.75;;;8.80;;
10335;SDS011;5213;53.548;9.930;2023-01-24T14:53:28;12.25;;;9.52;;
10335;SDS011;5213;53.548;9.930;2023-01-24T14:55:56;11.43;;;8.73;;
10335;SDS011;5213;53.548;9.930;2023-01-24T14:58:24;12.65;;;9.20;;
10335;SDS011;5213;53.548;9.930;2023-01-24T15:00:51;9.75;;;8.73;;
10335;SDS011;5213;53.548;9.930;2023-01-24T15:03:19;11.80;;;9.68;;
10335;SDS011;5213;53.548;9.930;2023-01-24T15:05:53;11.80;;;9.55;;
10335;SDS011;5213;53.548;9.930;2023-01-24T15:08:19;12.45;;;10.13;;
10335;SDS011;5213;53.548;9.930;2023-01-24T15:10:51;16.10;;;11.55;;
10335;SDS011;5213;53.548;9.930;2023-01-24T15:13:19;11.95;;;9.75;;
10335;SDS011;5213;53.548;9.930;2023-01-24T15:15:48;16.58;;;9.20;;
10335;SDS011;5213;53.548;9.930;2023-01-24T15:18:33;15.43;;;10.27;;
10335;SDS011;5213;53.548;9.930;2023-01-24T15:21:01;11.65;;;10.02;;
10335;SDS011;5213;53.548;9.930;2023-01-24T15:23:28;13.45;;;9.68;;
10335;SDS011;5213;53.548;9.930;2023-01-24T15:25:55;12.15;;;10.00;;
10335;SDS011;5213;53.548;9.930;2023-01-24T15:28:28;14.45;;;10.90;;
10335;SDS011;5213;53.548;9.930;2023-01-24T15:30:55;11.93;;;9.63;;
10335;SDS011;5213;53.548;9.930;2023-01-24T15:33:22;15.15;;;9.95;;
10335;SDS011;5213;53.548;9.930;2023-01-24T15:35:49;13.52;;;10.52;;
10335;SDS011;5213;53.548;9.930;2023-01-24T15:40:48;14.77;;;10.38;;
10335;SDS011;5213;53.548;9.930;2023-01-24T15:43:20;17.17;;;10.45;;
10335;SDS011;5213;53.548;9.930;2023-01-24T15:46:05;12.57;;;10.57;;
10335;SDS011;5213;53.548;9.930;2023-01-24T15:48:57;12.93;;;10.50;;
10335;SDS011;5213;53.548;9.930;2023-01-24T15:51:42;14.98;;;10.57;;
10335;SDS011;5213;53.548;9.930;2023-01-24T15:54:12;11.50;;;10.25;;
10335;SDS011;5213;53.548;9.930;2023-01-24T15:56:39;13.00;;;10.52;;
10335;SDS011;5213;53.548;9.930;2023-01-24T15:59:16;12.32;;;9.95;;
10335;SDS011;5213;53.548;9.930;2023-01-24T16:01:42;13.05;;;10.05;;
10335;SDS011;5213;53.548;9.930;2023-01-24T16:04:12;14.05;;;11.45;;
10335;SDS011;5213;53.548;9.930;2023-01-24T16:06:39;12.80;;;10.88;;
10335;SDS011;5213;53.548;9.930;2023-01-24T16:09:05;12.80;;;10.70;;
10335;SDS011;5213;53.548;9.930;2023-01-24T16:11:32;11.18;;;9.65;;
10335;SDS011;5213;53.548;9.930;2023-01-24T16:13:58;14.77;;;10.95;;
10335;SDS011;5213;53.548;9.930;2023-01-24T16:16:24;12.77;;;10.68;;
10335;SDS011;5213;53.548;9.930;2023-01-24T16:18:50;13.02;;;9.77;;
10335;SDS011;5213;53.548;9.930;2023-01-24T16:21:16;13.45;;;11.30;;
10335;SDS011;5213;53.548;9.930;2023-01-24T16:23:42;16.15;;;11.85;;
10335;SDS011;5213;53.548;9.930;2023-01-24T16:26:27;12.90;;;10.20;;
10335;SDS011;5213;53.548;9.930;2023-01-24T16:28:53;12.30;;;10.05;;
10335;SDS011;5213;53.548;9.930;2023-01-24T16:31:19;15.35;;;11.90;;
10335;SDS011;5213;53.548;9.930;2023-01-24T16:33:45;18.95;;;13.30;;
10335;SDS011;5213;53.548;9.930;2023-01-24T16:36:12;12.05;;;9.88;;
10335;SDS011;5213;53.548;9.930;2023-01-24T16:38:40;13.25;;;10.48;;
10335;SDS011;5213;53.548;9.930;2023-01-24T16:41:06;12.82;;;10.50;;
10335;SDS011;5213;53.548;9.930;2023-01-24T16:43:32;13.23;;;10.55;;
10335;SDS011;5213;53.548;9.930;2023-01-24T16:45:58;15.02;;;10.90;;
10335;SDS011;5213;53.548;9.930;2023-01-24T16:48:24;13.57;;;10.13;;
10335;SDS011;5213;53.548;9.930;2023-01-24T16:50:51;12.00;;;10.25;;